createdAt,value
2023-03-13T00:01:28.766Z,21.15
2023-03-13T00:03:55.691Z,21.15
2023-03-13T00:06:34.075Z,21.14
2023-03-13T00:09:01.755Z,21.14
2023-03-13T00:11:28.680Z,21.13
2023-03-13T00:13:59.706Z,21.13
2023-03-13T00:16:28.013Z,21.14
2023-03-13T00:18:56.646Z,21.10
2023-03-13T00:21:25.841Z,21.12
2023-03-13T00:23:52.773Z,21.12
2023-03-13T00:26:22.218Z,21.11
2023-03-13T00:28:50.936Z,21.10
2023-03-13T00:31:23.765Z,21.10
2023-03-13T00:33:53.070Z,21.09
2023-03-13T00:36:23.112Z,21.09
2023-03-13T00:38:50.156Z,21.07
2023-03-13T00:41:19.605Z,21.07
2023-03-13T00:43:47.093Z,21.06
2023-03-13T00:46:15.545Z,21.06
2023-03-13T00:48:42.346Z,21.05
2023-03-13T00:51:09.050Z,21.04
2023-03-13T00:53:36.210Z,21.05
2023-03-13T00:56:09.139Z,21.03
2023-03-13T00:58:38.543Z,21.05
2023-03-13T01:01:16.333Z,21.01
2023-03-13T01:03:44.241Z,20.99
2023-03-13T01:06:13.920Z,21.01
2023-03-13T01:08:40.608Z,21.01
2023-03-13T01:11:10.176Z,21.02
2023-03-13T01:13:37.731Z,21.02
2023-03-13T01:16:13.199Z,21.01
2023-03-13T01:18:41.998Z,21.00
2023-03-13T01:21:08.551Z,21.01
2023-03-13T01:23:35.487Z,20.98
2023-03-13T01:26:07.914Z,21.00
2023-03-13T01:28:35.566Z,20.99
2023-03-13T01:31:14.536Z,20.99
2023-03-13T01:33:41.487Z,20.98
2023-03-13T01:36:08.960Z,20.96
2023-03-13T01:38:36.153Z,20.95
2023-03-13T01:41:03.628Z,20.96
2023-03-13T01:43:32.332Z,20.96
2023-03-13T01:46:13.584Z,20.96
2023-03-13T01:48:45.427Z,20.95
2023-03-13T01:51:16.601Z,20.96
2023-03-13T01:53:45.680Z,20.95
2023-03-13T01:56:18.946Z,20.94
2023-03-13T01:58:47.951Z,20.92
2023-03-13T02:01:15.560Z,20.92
2023-03-13T02:03:43.384Z,20.92
2023-03-13T02:06:11.276Z,20.92
2023-03-13T02:08:42.779Z,20.92
2023-03-13T02:11:13.069Z,20.93
2023-03-13T02:13:39.786Z,20.93
2023-03-13T02:16:06.683Z,20.93
2023-03-13T02:18:33.212Z,20.90
2023-03-13T02:21:33.230Z,20.91
2023-03-13T02:24:19.951Z,20.92
2023-03-13T02:26:46.440Z,20.88
2023-03-13T02:29:18.527Z,20.89
2023-03-13T02:31:49.698Z,20.89
2023-03-13T02:34:20.535Z,20.89
2023-03-13T02:36:47.796Z,20.89
2023-03-13T02:39:18.359Z,20.88
2023-03-13T02:41:45.139Z,20.85
2023-03-13T02:44:11.696Z,20.85
2023-03-13T02:46:47.096Z,20.84
2023-03-13T02:49:26.202Z,20.84
2023-03-13T02:51:56.491Z,20.85
2023-03-13T02:54:39.400Z,20.85
2023-03-13T02:57:06.125Z,20.84
2023-03-13T02:59:33.692Z,20.85
2023-03-13T03:02:00.319Z,20.83
2023-03-13T03:04:27.412Z,20.85
2023-03-13T03:06:54.092Z,20.84
2023-03-13T03:09:22.068Z,20.84
2023-03-13T03:11:48.804Z,20.85
2023-03-13T03:14:15.718Z,20.83
2023-03-13T03:16:42.648Z,20.84
2023-03-13T03:19:09.514Z,20.84
2023-03-13T03:21:36.033Z,20.82
2023-03-13T03:24:02.843Z,20.83
2023-03-13T03:26:29.568Z,20.84
2023-03-13T03:28:56.264Z,20.82
2023-03-13T03:31:23.006Z,20.82
2023-03-13T03:33:49.564Z,20.82
2023-03-13T03:36:20.546Z,20.81
2023-03-13T03:38:47.321Z,20.80
2023-03-13T03:41:14.818Z,20.81
2023-03-13T03:43:41.576Z,20.80
2023-03-13T03:46:08.365Z,20.81
2023-03-13T03:48:35.271Z,20.82
2023-03-13T03:51:01.767Z,20.81
2023-03-13T03:53:29.213Z,20.80
2023-03-13T03:55:55.822Z,20.79
2023-03-13T03:58:22.304Z,20.78
2023-03-13T04:00:49.070Z,20.78
2023-03-13T04:03:16.906Z,20.78
2023-03-13T04:05:44.314Z,20.78
2023-03-13T04:08:10.878Z,20.79
2023-03-13T04:10:37.455Z,20.79
2023-03-13T04:13:03.937Z,20.77
2023-03-13T04:15:30.624Z,20.78
2023-03-13T04:17:57.154Z,20.78
2023-03-13T04:20:23.705Z,20.78
2023-03-13T04:22:50.185Z,20.78
2023-03-13T04:25:16.919Z,20.79
2023-03-13T04:27:43.785Z,20.79
2023-03-13T04:30:10.871Z,20.78
2023-03-13T04:32:37.549Z,20.78
2023-03-13T04:35:04.556Z,20.78
2023-03-13T04:37:31.483Z,20.77
2023-03-13T04:39:58.094Z,20.77
2023-03-13T04:42:24.724Z,20.78
2023-03-13T04:44:51.222Z,20.78
2023-03-13T04:47:17.770Z,20.77
2023-03-13T04:49:44.255Z,20.78
2023-03-13T04:52:10.861Z,20.77
2023-03-13T04:54:37.413Z,20.78
2023-03-13T04:57:04.065Z,20.78
2023-03-13T04:59:31.672Z,20.78
2023-03-13T05:01:58.181Z,20.76
2023-03-13T05:04:25.160Z,20.77
2023-03-13T05:06:51.913Z,20.79
2023-03-13T05:09:18.396Z,20.82
2023-03-13T05:11:44.868Z,20.84
2023-03-13T05:14:11.604Z,20.88
2023-03-13T05:16:39.198Z,20.90
2023-03-13T05:19:05.738Z,20.94
2023-03-13T05:21:32.324Z,20.95
2023-03-13T05:23:58.821Z,20.96
2023-03-13T05:26:25.400Z,20.98
2023-03-13T05:28:51.911Z,21.00
2023-03-13T05:31:18.526Z,21.00
2023-03-13T05:33:45.036Z,21.00
2023-03-13T05:36:11.596Z,21.01
2023-03-13T05:38:38.303Z,21.03
2023-03-13T05:41:05.092Z,21.02
2023-03-13T05:43:31.587Z,21.03
2023-03-13T05:45:58.102Z,21.03
2023-03-13T05:48:24.594Z,21.03
2023-03-13T05:50:51.114Z,21.03
2023-03-13T05:53:17.652Z,21.02
2023-03-13T05:55:44.250Z,21.01
2023-03-13T05:58:10.748Z,21.03
2023-03-13T06:00:37.225Z,21.02
2023-03-13T06:03:03.850Z,21.02
2023-03-13T06:05:30.384Z,21.00
2023-03-13T06:07:56.890Z,21.02
2023-03-13T06:10:23.530Z,21.03
2023-03-13T06:12:55.909Z,21.05
2023-03-13T06:15:23.444Z,21.06
2023-03-13T06:17:50.152Z,21.06
2023-03-13T06:20:16.979Z,21.07
2023-03-13T06:22:43.528Z,21.07
2023-03-13T06:25:10.470Z,21.07
2023-03-13T06:27:37.002Z,21.08
2023-03-13T06:30:04.854Z,21.09
2023-03-13T06:32:31.438Z,21.09
2023-03-13T06:34:58.055Z,21.09
2023-03-13T06:37:24.698Z,21.09
2023-03-13T06:39:51.291Z,21.09
2023-03-13T06:42:17.846Z,21.09
2023-03-13T06:44:44.806Z,21.10
2023-03-13T06:47:12.484Z,21.11
2023-03-13T06:49:41.088Z,21.10
2023-03-13T06:52:07.569Z,21.10
2023-03-13T06:54:34.096Z,21.12
2023-03-13T06:57:00.604Z,21.12
2023-03-13T06:59:27.278Z,21.12
2023-03-13T07:01:53.817Z,21.12
2023-03-13T07:04:20.644Z,21.11
2023-03-13T07:06:47.278Z,21.10
2023-03-13T07:09:13.743Z,21.12
2023-03-13T07:11:40.289Z,21.13
2023-03-13T07:14:16.660Z,21.14
2023-03-13T07:16:44.646Z,21.12
2023-03-13T07:19:11.369Z,21.13
2023-03-13T07:21:37.997Z,21.13
2023-03-13T07:24:04.888Z,21.14
2023-03-13T07:26:31.410Z,21.15
2023-03-13T07:28:58.068Z,21.14
2023-03-13T07:31:24.711Z,21.14
2023-03-13T07:33:56.512Z,21.15
2023-03-13T07:36:23.996Z,21.14
2023-03-13T07:38:51.549Z,21.15
2023-03-13T07:41:18.908Z,21.14
2023-03-13T07:43:46.355Z,21.13
2023-03-13T07:46:21.555Z,21.14
2023-03-13T07:48:48.577Z,21.16
2023-03-13T07:51:17.886Z,21.15
2023-03-13T07:53:47.742Z,21.16
2023-03-13T07:56:20.411Z,21.18
2023-03-13T07:58:47.138Z,21.17
2023-03-13T08:01:27.354Z,21.16
2023-03-13T08:03:56.147Z,21.17
2023-03-13T08:06:25.291Z,21.18
2023-03-13T08:08:53.721Z,21.18
2023-03-13T08:11:24.454Z,21.18
2023-03-13T08:13:52.163Z,21.18
2023-03-13T08:16:21.081Z,21.18
2023-03-13T08:18:53.865Z,21.18
2023-03-13T08:21:28.983Z,21.18
2023-03-13T08:23:58.041Z,21.16
2023-03-13T08:26:27.054Z,21.18
2023-03-13T08:28:56.173Z,21.19
2023-03-13T08:31:24.959Z,21.19
2023-03-13T08:33:52.624Z,21.20
2023-03-13T08:36:23.201Z,21.20
2023-03-13T08:38:49.849Z,21.21
2023-03-13T08:41:24.272Z,21.20
2023-03-13T08:43:54.520Z,21.19
2023-03-13T08:46:22.100Z,21.18
2023-03-13T08:48:53.506Z,21.20
2023-03-13T08:51:23.110Z,21.21
2023-03-13T08:53:50.789Z,21.21
2023-03-13T08:56:19.992Z,21.21
2023-03-13T08:58:51.441Z,21.21
2023-03-13T09:01:18.540Z,21.22
2023-03-13T09:03:45.577Z,21.22
2023-03-13T09:06:12.678Z,21.22
2023-03-13T09:08:39.873Z,21.23
2023-03-13T09:11:17.813Z,21.25
2023-03-13T09:13:47.129Z,21.25
2023-03-13T09:16:16.722Z,21.26
2023-03-13T09:18:43.674Z,21.27
2023-03-13T09:21:19.147Z,21.27
2023-03-13T09:23:45.691Z,21.27
2023-03-13T09:26:12.426Z,21.27
2023-03-13T09:28:38.942Z,21.27
2023-03-13T09:31:10.874Z,21.29
2023-03-13T09:33:38.093Z,21.28
2023-03-13T09:36:05.309Z,21.29
2023-03-13T09:38:32.370Z,21.28
2023-03-13T09:41:24.766Z,21.29
2023-03-13T09:44:05.446Z,21.29
2023-03-13T09:46:36.734Z,21.28
2023-03-13T09:49:10.214Z,21.29
2023-03-13T09:51:42.957Z,21.29
2023-03-13T09:54:21.839Z,21.29
2023-03-13T09:56:55.246Z,21.30
2023-03-13T09:59:43.742Z,21.30
2023-03-13T10:02:35.118Z,21.31
2023-03-13T10:05:15.138Z,21.31
2023-03-13T10:07:42.034Z,21.32
2023-03-13T10:10:39.985Z,21.32
2023-03-13T10:13:28.105Z,21.32
2023-03-13T10:16:04.019Z,21.33
2023-03-13T10:18:32.920Z,21.32
2023-03-13T10:21:01.534Z,21.34
2023-03-13T10:23:55.799Z,21.33
2023-03-13T10:26:29.303Z,21.33
2023-03-13T10:29:11.732Z,21.32
2023-03-13T10:31:39.848Z,21.36
2023-03-13T10:34:12.690Z,21.37
2023-03-13T10:36:45.262Z,21.39
2023-03-13T10:39:17.894Z,21.43
2023-03-13T10:41:45.381Z,21.44
2023-03-13T10:44:21.361Z,21.46
2023-03-13T10:46:49.699Z,21.46
2023-03-13T10:49:22.465Z,21.50
2023-03-13T10:51:48.960Z,21.51
2023-03-13T10:54:26.984Z,21.53
2023-03-13T10:57:28.767Z,21.54
2023-03-13T10:59:55.982Z,21.54
2023-03-13T11:02:32.943Z,21.56
2023-03-13T11:04:59.880Z,21.56
2023-03-13T11:07:26.828Z,21.58
2023-03-13T11:10:20.776Z,21.60
2023-03-13T11:12:52.051Z,21.61
2023-03-13T11:15:32.662Z,21.62
2023-03-13T11:18:02.925Z,21.63
2023-03-13T11:20:36.150Z,21.64
2023-03-13T11:23:11.240Z,21.64
2023-03-13T11:25:48.861Z,21.65
2023-03-13T11:28:24.394Z,21.68
2023-03-13T11:31:02.361Z,21.68
2023-03-13T11:33:34.488Z,21.70
2023-03-13T11:36:18.762Z,21.70
2023-03-13T11:39:09.664Z,21.72
2023-03-13T11:42:21.191Z,21.74
2023-03-13T11:45:01.775Z,21.76
2023-03-13T11:47:31.123Z,21.77
2023-03-13T11:49:57.576Z,21.77
2023-03-13T11:52:42.798Z,21.78
2023-03-13T11:55:27.371Z,21.78
2023-03-13T11:58:15.082Z,21.78
2023-03-13T12:00:59.704Z,21.80
2023-03-13T12:04:04.052Z,21.81
2023-03-13T12:06:34.217Z,21.83
2023-03-13T12:09:09.652Z,21.85
2023-03-13T12:12:03.569Z,21.86
2023-03-13T12:14:52.500Z,21.86
2023-03-13T12:17:27.978Z,21.86
2023-03-13T12:20:38.686Z,21.88
2023-03-13T12:23:05.196Z,21.89
2023-03-13T12:25:43.437Z,21.89
2023-03-13T12:28:37.725Z,21.91
2023-03-13T12:31:20.286Z,21.92
2023-03-13T12:33:56.007Z,21.96
2023-03-13T12:36:42.933Z,21.98
2023-03-13T12:39:27.875Z,21.99
2023-03-13T12:42:16.293Z,22.02
2023-03-13T12:44:43.177Z,22.04
2023-03-13T12:47:16.428Z,22.06
2023-03-13T12:50:07.706Z,22.08
2023-03-13T12:53:02.232Z,22.10
2023-03-13T12:56:06.189Z,22.13
2023-03-13T12:58:47.383Z,22.15
2023-03-13T13:01:21.742Z,22.16
2023-03-13T13:04:08.120Z,22.18
2023-03-13T13:06:55.871Z,22.21
2023-03-13T13:09:28.732Z,22.24
2023-03-13T13:11:57.982Z,22.25
2023-03-13T13:14:27.452Z,22.26
2023-03-13T13:16:59.935Z,22.28
2023-03-13T13:19:26.395Z,22.29
2023-03-13T13:22:30.452Z,22.29
2023-03-13T13:25:02.514Z,22.29
2023-03-13T13:27:32.030Z,22.28
2023-03-13T13:29:58.545Z,22.29
2023-03-13T13:32:42.751Z,22.32
2023-03-13T13:35:12.367Z,22.33
2023-03-13T13:37:41.938Z,22.35
2023-03-13T13:40:27.047Z,22.36
2023-03-13T13:42:59.041Z,22.38
2023-03-13T13:45:38.712Z,22.39
2023-03-13T13:48:20.251Z,22.42
2023-03-13T13:51:14.195Z,22.42
2023-03-13T13:53:46.764Z,22.45
2023-03-13T13:56:28.840Z,22.45
2023-03-13T13:59:03.048Z,22.47
2023-03-13T14:01:29.729Z,22.48
2023-03-13T14:04:11.487Z,22.50
2023-03-13T14:06:42.674Z,22.50
2023-03-13T14:09:28.965Z,22.52
2023-03-13T14:11:56.828Z,22.54
2023-03-13T14:14:23.578Z,22.54
2023-03-13T14:16:58.501Z,22.56
2023-03-13T14:19:30.496Z,22.58
2023-03-13T14:22:01.138Z,22.60
2023-03-13T14:24:27.696Z,22.62
2023-03-13T14:26:54.233Z,22.62
2023-03-13T14:29:25.847Z,22.64
2023-03-13T14:31:57.850Z,22.66
2023-03-13T14:34:25.844Z,22.67
2023-03-13T14:37:16.832Z,22.68
2023-03-13T14:39:45.911Z,22.70
2023-03-13T14:42:14.910Z,22.71
2023-03-13T14:44:44.112Z,22.73
2023-03-13T14:47:30.803Z,22.75
2023-03-13T14:50:00.259Z,22.75
2023-03-13T14:52:29.904Z,22.77
2023-03-13T14:55:03.977Z,22.79
2023-03-13T14:57:32.972Z,22.79
2023-03-13T15:00:22.590Z,22.82
2023-03-13T15:02:49.202Z,22.83
2023-03-13T15:05:33.434Z,22.84
2023-03-13T15:08:00.049Z,22.85
2023-03-13T15:10:40.944Z,22.86
2023-03-13T15:13:32.180Z,22.88
2023-03-13T15:15:59.343Z,22.88
2023-03-13T15:18:28.931Z,22.90
2023-03-13T15:21:26.641Z,22.91
2023-03-13T15:24:12.389Z,22.92
2023-03-13T15:26:38.959Z,22.93
2023-03-13T15:29:05.593Z,22.93
2023-03-13T15:31:32.620Z,22.95
2023-03-13T15:34:01.089Z,22.95
2023-03-13T15:36:29.330Z,22.96
2023-03-13T15:38:56.345Z,22.97
2023-03-13T15:41:23.823Z,22.98
2023-03-13T15:43:55.376Z,23.00
2023-03-13T15:46:23.931Z,23.00
2023-03-13T15:48:51.665Z,23.01
2023-03-13T15:51:18.281Z,23.02
2023-03-13T15:53:46.345Z,23.01
2023-03-13T15:56:13.012Z,23.01
2023-03-13T15:58:39.667Z,23.03
2023-03-13T16:01:06.750Z,23.03
2023-03-13T16:03:33.247Z,23.03
2023-03-13T16:05:59.981Z,23.04
2023-03-13T16:08:36.569Z,23.03
2023-03-13T16:11:03.797Z,23.04
2023-03-13T16:13:31.055Z,23.03
2023-03-13T16:15:58.392Z,23.02
2023-03-13T16:18:25.868Z,23.03
2023-03-13T16:20:53.151Z,23.03
2023-03-13T16:23:19.702Z,23.04
2023-03-13T16:25:47.449Z,23.05
2023-03-13T16:28:14.751Z,23.03
2023-03-13T16:30:43.679Z,23.03
2023-03-13T16:33:11.319Z,23.03
2023-03-13T16:35:39.237Z,23.03
2023-03-13T16:38:08.425Z,23.01
2023-03-13T16:40:35.361Z,22.99
2023-03-13T16:43:01.986Z,22.99
2023-03-13T16:45:28.588Z,22.98
2023-03-13T16:47:55.176Z,22.98
2023-03-13T16:50:23.859Z,22.98
2023-03-13T16:52:51.668Z,22.96
2023-03-13T16:55:19.581Z,22.96
2023-03-13T16:57:46.851Z,22.95
2023-03-13T17:00:16.768Z,22.94
2023-03-13T17:02:43.862Z,22.92
2023-03-13T17:05:12.405Z,22.91
2023-03-13T17:07:39.275Z,22.90
2023-03-13T17:10:33.042Z,22.89
2023-03-13T17:13:00.376Z,22.87
2023-03-13T17:15:27.654Z,22.86
2023-03-13T17:17:54.944Z,22.85
2023-03-13T17:20:26.763Z,22.87
2023-03-13T17:22:56.104Z,22.84
2023-03-13T17:25:22.886Z,22.85
2023-03-13T17:27:49.468Z,22.87
2023-03-13T17:30:27.732Z,22.85
2023-03-13T17:32:54.421Z,22.83
2023-03-13T17:35:21.706Z,22.84
2023-03-13T17:37:48.669Z,22.83
2023-03-13T17:40:27.089Z,22.82
2023-03-13T17:42:53.903Z,22.82
2023-03-13T17:45:20.440Z,22.82
2023-03-13T17:47:49.035Z,22.81
2023-03-13T17:50:27.609Z,22.81
2023-03-13T17:52:54.677Z,22.81
2023-03-13T17:55:21.702Z,22.81
2023-03-13T17:57:48.846Z,22.82
2023-03-13T18:00:29.264Z,22.82
2023-03-13T18:02:56.929Z,22.80
2023-03-13T18:05:23.515Z,22.79
2023-03-13T18:07:50.843Z,22.80
2023-03-13T18:10:23.101Z,22.80
2023-03-13T18:12:51.421Z,22.77
2023-03-13T18:15:20.046Z,22.77
2023-03-13T18:17:46.881Z,22.76
2023-03-13T18:20:22.156Z,22.75
2023-03-13T18:22:48.858Z,22.74
2023-03-13T18:25:15.671Z,22.73
2023-03-13T18:27:42.431Z,22.74
2023-03-13T18:30:19.668Z,22.76
2023-03-13T18:32:46.914Z,22.75
2023-03-13T18:35:14.412Z,22.74
2023-03-13T18:37:42.422Z,22.73
2023-03-13T18:40:21.632Z,22.72
2023-03-13T18:42:48.292Z,22.72
2023-03-13T18:45:21.253Z,22.71
2023-03-13T18:47:48.342Z,22.70
2023-03-13T18:50:24.912Z,22.70
2023-03-13T18:52:55.768Z,22.68
2023-03-13T18:55:24.945Z,22.67
2023-03-13T18:57:51.912Z,22.65
2023-03-13T19:00:23.071Z,22.66
2023-03-13T19:02:49.965Z,22.65
2023-03-13T19:05:17.668Z,22.67
2023-03-13T19:07:45.071Z,22.65
2023-03-13T19:10:20.585Z,22.64
2023-03-13T19:12:47.657Z,22.65
2023-03-13T19:15:15.098Z,22.65
2023-03-13T19:17:42.148Z,22.65
2023-03-13T19:20:20.384Z,22.64
2023-03-13T19:22:47.674Z,22.63
2023-03-13T19:25:17.172Z,22.63
2023-03-13T19:27:44.789Z,22.62
2023-03-13T19:30:25.681Z,22.62
2023-03-13T19:32:52.514Z,22.61
2023-03-13T19:35:21.644Z,22.61
2023-03-13T19:37:48.565Z,22.60
2023-03-13T19:40:24.231Z,22.58
2023-03-13T19:42:50.896Z,22.60
2023-03-13T19:45:17.800Z,22.59
2023-03-13T19:47:44.636Z,22.58
2023-03-13T19:50:23.178Z,22.57
2023-03-13T19:52:49.756Z,22.57
2023-03-13T19:55:16.391Z,22.58
2023-03-13T19:57:42.963Z,22.57
2023-03-13T20:00:18.532Z,22.58
2023-03-13T20:02:45.626Z,22.56
2023-03-13T20:05:12.225Z,22.54
2023-03-13T20:07:38.738Z,22.54
2023-03-13T20:10:06.074Z,22.53
2023-03-13T20:12:34.134Z,22.52
2023-03-13T20:15:01.124Z,22.52
2023-03-13T20:17:27.664Z,22.53
2023-03-13T20:19:54.289Z,22.52
2023-03-13T20:22:20.838Z,22.51
2023-03-13T20:24:47.384Z,22.50
2023-03-13T20:27:14.046Z,22.49
2023-03-13T20:29:41.418Z,22.48
2023-03-13T20:32:08.469Z,22.48
2023-03-13T20:34:35.071Z,22.49
2023-03-13T20:37:02.553Z,22.49
2023-03-13T20:39:29.265Z,22.49
2023-03-13T20:41:56.345Z,22.49
2023-03-13T20:44:23.501Z,22.48
2023-03-13T20:46:50.186Z,22.47
2023-03-13T20:49:16.842Z,22.48
2023-03-13T20:51:43.765Z,22.46
2023-03-13T20:54:10.323Z,22.47
2023-03-13T20:56:36.875Z,22.44
2023-03-13T20:59:04.196Z,22.43
2023-03-13T21:01:32.242Z,22.44
2023-03-13T21:03:59.106Z,22.43
2023-03-13T21:06:25.650Z,22.42
2023-03-13T21:08:52.140Z,22.42
2023-03-13T21:11:21.831Z,22.41
2023-03-13T21:13:48.916Z,22.41
2023-03-13T21:16:16.960Z,22.42
2023-03-13T21:18:43.881Z,22.41
2023-03-13T21:21:15.177Z,22.42
2023-03-13T21:23:41.793Z,22.41
2023-03-13T21:26:08.368Z,22.42
2023-03-13T21:28:35.000Z,22.42
2023-03-13T21:31:09.758Z,22.41
2023-03-13T21:33:36.772Z,22.38
2023-03-13T21:36:03.633Z,22.38
2023-03-13T21:38:30.382Z,22.38
2023-03-13T21:40:58.457Z,22.37
2023-03-13T21:43:28.220Z,22.35
2023-03-13T21:45:56.625Z,22.35
2023-03-13T21:48:23.135Z,22.33
2023-03-13T21:50:52.684Z,22.33
2023-03-13T21:53:19.534Z,22.31
2023-03-13T21:55:49.754Z,22.30
2023-03-13T21:58:17.026Z,22.29
2023-03-13T22:00:44.070Z,22.29
2023-03-13T22:03:10.977Z,22.28
2023-03-13T22:05:42.404Z,22.28
2023-03-13T22:08:09.105Z,22.27
2023-03-13T22:10:37.890Z,22.26
2023-03-13T22:13:08.305Z,22.25
2023-03-13T22:15:34.924Z,22.25
2023-03-13T22:18:01.497Z,22.23
2023-03-13T22:20:28.081Z,22.22
2023-03-13T22:22:54.625Z,22.21
2023-03-13T22:25:21.177Z,22.20
2023-03-13T22:27:47.683Z,22.21
2023-03-13T22:30:14.455Z,22.19
2023-03-13T22:32:41.097Z,22.19
2023-03-13T22:35:08.361Z,22.18
2023-03-13T22:37:35.360Z,22.16
2023-03-13T22:40:02.117Z,22.15
2023-03-13T22:42:28.612Z,22.16
2023-03-13T22:44:55.772Z,22.14
2023-03-13T22:47:23.243Z,22.14
2023-03-13T22:49:50.547Z,22.13
2023-03-13T22:52:17.148Z,22.14
2023-03-13T22:54:46.462Z,22.12
2023-03-13T22:57:13.415Z,22.11
2023-03-13T22:59:39.962Z,22.13
2023-03-13T23:02:06.435Z,22.13
2023-03-13T23:04:32.891Z,22.09
2023-03-13T23:06:59.392Z,22.08
2023-03-13T23:09:26.096Z,22.08
2023-03-13T23:11:52.624Z,22.07
2023-03-13T23:14:19.118Z,22.05
2023-03-13T23:16:45.856Z,22.05
2023-03-13T23:19:12.367Z,22.05
2023-03-13T23:21:38.845Z,22.04
2023-03-13T23:24:06.015Z,22.03
2023-03-13T23:26:32.522Z,22.04
2023-03-13T23:28:59.001Z,22.03
2023-03-13T23:31:25.468Z,22.02
2023-03-13T23:33:52.122Z,22.01
2023-03-13T23:36:19.222Z,21.98
2023-03-13T23:38:49.473Z,21.99
2023-03-13T23:41:16.023Z,21.99
2023-03-13T23:43:42.855Z,21.99
2023-03-13T23:46:20.996Z,21.98
2023-03-13T23:48:47.518Z,21.97
2023-03-13T23:51:14.034Z,21.96
2023-03-13T23:53:42.368Z,21.95
2023-03-13T23:56:09.702Z,21.95
2023-03-13T23:58:36.239Z,21.94
